createdAt,value
2018-07-31T00:01:53.818Z,22.78
2018-07-31T00:04:25.997Z,22.80
2018-07-31T00:06:58.041Z,22.86
2018-07-31T00:09:30.120Z,22.79
2018-07-31T00:12:02.272Z,22.76
2018-07-31T00:14:34.359Z,22.78
2018-07-31T00:17:06.468Z,22.72
2018-07-31T00:19:38.595Z,22.72
2018-07-31T00:22:10.651Z,22.70
2018-07-31T00:24:42.710Z,22.67
2018-07-31T00:27:14.879Z,22.66
2018-07-31T00:29:46.907Z,22.60
2018-07-31T00:32:18.996Z,22.56
2018-07-31T00:34:51.151Z,22.63
2018-07-31T00:37:23.363Z,22.61
2018-07-31T00:39:55.425Z,22.53
2018-07-31T00:42:27.475Z,22.45
2018-07-31T00:44:59.691Z,22.32
2018-07-31T00:47:31.772Z,22.27
2018-07-31T00:50:04.003Z,22.39
2018-07-31T00:52:36.094Z,22.41
2018-07-31T00:55:08.260Z,22.35
2018-07-31T00:57:40.390Z,22.14
2018-07-31T01:00:12.492Z,22.15
2018-07-31T01:02:44.619Z,22.06
2018-07-31T01:05:16.775Z,22.03
2018-07-31T01:07:48.947Z,21.99
2018-07-31T01:10:21.117Z,22.04
2018-07-31T01:12:53.243Z,22.04
2018-07-31T01:15:25.411Z,21.94
2018-07-31T01:17:57.554Z,21.94
2018-07-31T01:20:29.859Z,21.90
2018-07-31T01:23:01.965Z,21.85
2018-07-31T01:25:34.130Z,21.82
2018-07-31T01:28:06.302Z,21.72
2018-07-31T01:30:38.420Z,21.68
2018-07-31T01:33:10.519Z,21.69
2018-07-31T01:35:42.648Z,21.69
2018-07-31T01:38:14.760Z,21.71
2018-07-31T01:40:46.887Z,21.64
2018-07-31T01:43:18.974Z,21.62
2018-07-31T01:45:51.170Z,21.69
2018-07-31T01:48:23.263Z,21.75
2018-07-31T01:50:55.329Z,21.70
2018-07-31T01:53:27.375Z,21.69
2018-07-31T01:55:59.418Z,21.62
2018-07-31T01:58:31.539Z,21.55
2018-07-31T02:01:03.590Z,21.53
2018-07-31T02:03:35.637Z,21.59
2018-07-31T02:06:07.741Z,21.51
2018-07-31T02:08:39.800Z,21.43
2018-07-31T02:11:11.964Z,21.47
2018-07-31T02:13:44.045Z,21.47
2018-07-31T02:16:16.121Z,21.42
2018-07-31T02:18:48.353Z,21.30
2018-07-31T02:21:20.416Z,21.28
2018-07-31T02:23:52.488Z,21.34
2018-07-31T02:26:24.663Z,21.31
2018-07-31T02:28:56.785Z,21.24
2018-07-31T02:31:28.930Z,21.17
2018-07-31T02:34:01.007Z,21.12
2018-07-31T02:36:33.099Z,21.15
2018-07-31T02:39:08.198Z,21.20
2018-07-31T02:41:40.275Z,21.18
2018-07-31T02:44:12.343Z,21.07
2018-07-31T02:46:44.464Z,21.01
2018-07-31T02:49:16.715Z,21.03
2018-07-31T02:51:48.780Z,20.88
2018-07-31T02:54:20.853Z,20.77
2018-07-31T02:56:52.995Z,20.79
2018-07-31T02:59:25.083Z,20.97
2018-07-31T03:01:57.203Z,20.82
2018-07-31T03:04:29.323Z,20.87
2018-07-31T03:07:01.399Z,20.99
2018-07-31T03:09:33.467Z,20.83
2018-07-31T03:12:05.759Z,20.69
2018-07-31T03:14:37.865Z,20.65
2018-07-31T03:17:10.010Z,20.77
2018-07-31T03:19:42.111Z,20.77
2018-07-31T03:22:14.180Z,20.72
2018-07-31T03:24:46.286Z,20.62
2018-07-31T03:27:18.425Z,20.75
2018-07-31T03:29:50.549Z,20.68
2018-07-31T03:32:22.710Z,20.60
2018-07-31T03:34:54.813Z,20.55
2018-07-31T03:37:27.019Z,20.59
2018-07-31T03:39:59.161Z,20.62
2018-07-31T03:42:31.315Z,20.64
2018-07-31T03:45:04.464Z,20.59
2018-07-31T03:47:36.582Z,20.53
2018-07-31T03:50:08.843Z,20.53
2018-07-31T03:52:40.851Z,20.43
2018-07-31T03:55:13.031Z,20.38
2018-07-31T03:57:45.185Z,20.45
2018-07-31T04:00:17.322Z,20.47
2018-07-31T04:02:49.501Z,20.42
2018-07-31T04:05:21.643Z,20.53
2018-07-31T04:07:53.734Z,20.54
2018-07-31T04:10:25.826Z,20.57
2018-07-31T04:12:57.940Z,20.57
2018-07-31T04:15:30.023Z,20.62
2018-07-31T04:18:02.070Z,20.71
2018-07-31T04:20:34.219Z,20.79
2018-07-31T04:23:06.327Z,20.82
2018-07-31T04:25:38.402Z,20.87
2018-07-31T04:28:10.486Z,21.01
2018-07-31T04:30:42.599Z,21.08
2018-07-31T04:33:14.730Z,21.07
2018-07-31T04:35:46.948Z,21.21
2018-07-31T04:38:19.105Z,21.32
2018-07-31T04:40:51.319Z,21.36
2018-07-31T04:43:23.438Z,21.14
2018-07-31T04:45:55.529Z,21.43
2018-07-31T04:48:27.638Z,21.52
2018-07-31T04:50:59.807Z,21.63
2018-07-31T04:53:31.917Z,21.69
2018-07-31T04:56:03.979Z,21.88
2018-07-31T04:58:36.185Z,22.02
2018-07-31T05:01:08.838Z,22.21
2018-07-31T05:03:40.962Z,22.55
2018-07-31T05:06:13.127Z,23.60
2018-07-31T05:08:45.266Z,24.81
2018-07-31T05:11:17.488Z,25.84
2018-07-31T05:13:49.546Z,26.77
2018-07-31T05:16:21.653Z,27.27
2018-07-31T05:18:53.795Z,27.84
2018-07-31T05:21:25.973Z,28.20
2018-07-31T05:23:58.119Z,29.51
2018-07-31T05:26:30.311Z,29.71
2018-07-31T05:29:02.558Z,29.51
2018-07-31T05:31:34.664Z,29.72
2018-07-31T05:34:06.764Z,30.00
2018-07-31T05:36:38.810Z,30.42
2018-07-31T05:39:11.816Z,31.01
2018-07-31T05:41:43.966Z,31.09
2018-07-31T05:44:16.016Z,31.40
2018-07-31T05:46:48.104Z,31.15
2018-07-31T05:49:20.200Z,31.39
2018-07-31T05:51:52.427Z,32.15
2018-07-31T05:54:24.499Z,32.58
2018-07-31T05:56:56.610Z,32.50
2018-07-31T05:59:28.775Z,32.13
2018-07-31T06:02:00.934Z,31.50
2018-07-31T06:04:33.147Z,32.23
2018-07-31T06:07:05.283Z,32.28
2018-07-31T06:09:37.400Z,32.34
2018-07-31T06:12:09.511Z,32.52
2018-07-31T06:14:41.563Z,32.26
2018-07-31T06:17:13.779Z,32.74
2018-07-31T06:19:45.910Z,33.48
2018-07-31T06:22:18.113Z,33.58
2018-07-31T06:24:50.208Z,33.70
2018-07-31T06:27:22.329Z,33.01
2018-07-31T06:29:54.464Z,34.34
2018-07-31T06:32:26.607Z,35.16
2018-07-31T06:34:58.743Z,34.64
2018-07-31T06:37:30.897Z,35.66
2018-07-31T06:40:03.122Z,35.31
2018-07-31T06:42:35.271Z,34.82
2018-07-31T06:45:07.424Z,36.01
2018-07-31T06:47:39.787Z,34.55
2018-07-31T06:50:11.915Z,35.03
2018-07-31T06:52:44.128Z,34.52
2018-07-31T06:55:16.325Z,35.35
2018-07-31T06:57:48.492Z,35.15
2018-07-31T07:00:21.648Z,36.17
2018-07-31T07:02:54.032Z,36.20
2018-07-31T07:05:26.213Z,36.12
2018-07-31T07:07:58.436Z,37.02
2018-07-31T07:10:30.835Z,37.84
2018-07-31T07:13:03.123Z,38.18
2018-07-31T07:15:35.241Z,38.13
2018-07-31T07:18:07.455Z,37.24
2018-07-31T07:20:39.710Z,37.33
2018-07-31T07:23:11.855Z,36.71
2018-07-31T07:25:43.996Z,37.28
2018-07-31T07:28:16.117Z,36.56
2018-07-31T07:30:48.289Z,36.88
2018-07-31T07:33:20.420Z,36.66
2018-07-31T07:35:53.028Z,37.05
2018-07-31T07:38:25.264Z,36.82
2018-07-31T07:40:57.524Z,36.95
2018-07-31T07:43:29.691Z,38.22
2018-07-31T07:46:01.793Z,37.20
2018-07-31T07:48:33.957Z,36.42
2018-07-31T07:51:05.924Z,36.90
2018-07-31T07:53:38.067Z,38.09
2018-07-31T07:56:10.166Z,37.90
2018-07-31T07:58:42.319Z,38.28
2018-07-31T08:01:14.367Z,38.97
2018-07-31T08:03:46.570Z,39.56
2018-07-31T08:06:18.695Z,40.02
2018-07-31T08:08:50.793Z,39.34
2018-07-31T08:11:22.917Z,39.53
2018-07-31T08:13:56.044Z,39.29
2018-07-31T08:16:28.083Z,38.93
2018-07-31T08:19:00.195Z,38.18
2018-07-31T08:21:32.361Z,38.61
2018-07-31T08:24:04.539Z,38.87
2018-07-31T08:26:36.700Z,38.51
2018-07-31T08:29:08.797Z,38.21
2018-07-31T08:31:40.883Z,37.68
2018-07-31T08:34:13.056Z,38.98
2018-07-31T08:36:45.262Z,39.44
2018-07-31T08:39:17.511Z,38.72
2018-07-31T08:41:49.793Z,38.69
2018-07-31T08:44:21.882Z,39.34
2018-07-31T08:46:53.998Z,39.04
2018-07-31T08:49:26.077Z,39.60
2018-07-31T08:51:58.145Z,39.72
2018-07-31T08:54:35.811Z,40.59
2018-07-31T08:57:07.892Z,40.77
2018-07-31T08:59:40.003Z,41.34
2018-07-31T09:02:12.067Z,40.79
2018-07-31T09:04:44.143Z,40.65
2018-07-31T09:07:16.312Z,39.15
2018-07-31T09:09:48.423Z,38.34
2018-07-31T09:12:20.551Z,37.77
2018-07-31T09:14:52.675Z,38.61
2018-07-31T09:17:24.769Z,39.18
2018-07-31T09:19:56.835Z,40.07
2018-07-31T09:22:28.857Z,39.80
2018-07-31T09:25:00.932Z,38.66
2018-07-31T09:27:33.004Z,38.76
2018-07-31T09:30:05.271Z,37.84
2018-07-31T09:32:42.916Z,38.60
2018-07-31T09:35:15.002Z,39.18
2018-07-31T09:37:47.177Z,39.97
2018-07-31T09:40:19.286Z,38.74
2018-07-31T09:42:51.467Z,38.89
2018-07-31T09:45:23.668Z,38.86
2018-07-31T09:47:55.703Z,37.18
2018-07-31T09:50:28.226Z,37.14
2018-07-31T09:53:00.272Z,36.81
2018-07-31T09:55:32.354Z,36.53
2018-07-31T09:58:04.702Z,36.28
2018-07-31T10:00:42.340Z,37.12
2018-07-31T10:03:14.502Z,38.52
2018-07-31T10:05:46.661Z,37.94
2018-07-31T10:08:19.624Z,37.32
2018-07-31T10:10:53.809Z,37.90
2018-07-31T10:13:29.884Z,38.22
2018-07-31T10:16:01.946Z,39.18
2018-07-31T10:18:34.092Z,38.56
2018-07-31T10:21:06.548Z,39.28
2018-07-31T10:23:38.599Z,39.91
2018-07-31T10:26:10.737Z,39.88
2018-07-31T10:28:42.785Z,37.88
2018-07-31T10:31:14.858Z,37.23
2018-07-31T10:33:47.001Z,37.92
2018-07-31T10:36:19.079Z,38.09
2018-07-31T10:38:51.215Z,38.47
2018-07-31T10:41:23.316Z,38.63
2018-07-31T10:43:55.504Z,38.75
2018-07-31T10:46:27.567Z,38.62
2018-07-31T10:48:59.695Z,38.78
2018-07-31T10:51:31.791Z,40.01
2018-07-31T10:54:03.912Z,39.82
2018-07-31T10:56:36.032Z,39.55
2018-07-31T10:59:08.545Z,39.40
2018-07-31T11:01:41.943Z,39.31
2018-07-31T11:04:14.178Z,38.94
2018-07-31T11:06:46.378Z,38.59
2018-07-31T11:09:18.449Z,38.90
2018-07-31T11:11:50.582Z,40.10
2018-07-31T11:14:23.356Z,40.24
2018-07-31T11:16:55.449Z,40.17
2018-07-31T11:19:27.559Z,41.25
2018-07-31T11:21:59.883Z,41.29
2018-07-31T11:24:32.138Z,41.07
2018-07-31T11:27:04.596Z,41.77
2018-07-31T11:29:36.747Z,41.38
2018-07-31T11:32:08.888Z,41.80
2018-07-31T11:34:41.076Z,42.19
2018-07-31T11:37:13.193Z,40.87
2018-07-31T11:39:45.366Z,40.67
2018-07-31T11:42:17.474Z,41.00
2018-07-31T11:44:49.544Z,40.69
2018-07-31T11:47:21.745Z,40.30
2018-07-31T11:49:53.913Z,40.57
2018-07-31T11:52:26.038Z,40.01
2018-07-31T11:54:58.164Z,40.50
2018-07-31T11:57:30.226Z,40.90
2018-07-31T12:00:02.524Z,41.41
2018-07-31T12:02:34.687Z,41.81
2018-07-31T12:05:07.403Z,42.58
2018-07-31T12:07:39.572Z,42.35
2018-07-31T12:10:11.637Z,42.82
2018-07-31T12:12:43.725Z,42.20
2018-07-31T12:15:15.795Z,42.51
2018-07-31T12:17:47.928Z,41.88
2018-07-31T12:20:20.256Z,42.09
2018-07-31T12:22:52.405Z,42.50
2018-07-31T12:25:24.992Z,42.12
2018-07-31T12:27:57.606Z,42.62
2018-07-31T12:30:31.034Z,41.54
2018-07-31T12:33:04.363Z,43.02
2018-07-31T12:35:36.498Z,44.13
2018-07-31T12:38:08.709Z,44.26
2018-07-31T12:40:40.915Z,43.22
2018-07-31T12:43:13.117Z,42.95
2018-07-31T12:45:45.238Z,44.05
2018-07-31T12:48:17.527Z,45.08
2018-07-31T12:50:49.764Z,45.28
2018-07-31T12:53:22.909Z,43.81
2018-07-31T12:55:55.155Z,43.36
2018-07-31T12:58:27.276Z,43.43
2018-07-31T13:00:59.594Z,43.15
2018-07-31T13:03:31.895Z,44.18
2018-07-31T13:06:04.134Z,43.96
2018-07-31T13:08:36.272Z,44.58
2018-07-31T13:11:08.446Z,43.91
2018-07-31T13:13:40.511Z,45.18
2018-07-31T13:16:12.736Z,46.29
2018-07-31T13:18:44.921Z,46.78
2018-07-31T13:21:17.063Z,47.01
2018-07-31T13:23:49.183Z,46.11
2018-07-31T13:26:21.282Z,46.05
2018-07-31T13:28:53.349Z,47.56
2018-07-31T13:31:25.426Z,47.14
2018-07-31T13:33:57.544Z,45.23
2018-07-31T13:36:29.735Z,47.10
2018-07-31T13:39:01.894Z,48.18
2018-07-31T13:41:34.106Z,48.99
2018-07-31T13:44:06.595Z,47.28
2018-07-31T13:46:38.542Z,45.93
2018-07-31T13:49:10.796Z,46.87
2018-07-31T13:51:42.907Z,47.53
2018-07-31T13:54:15.012Z,46.43
2018-07-31T13:56:47.261Z,45.54
2018-07-31T13:59:19.368Z,44.61
2018-07-31T14:01:51.515Z,44.25
2018-07-31T14:04:23.627Z,44.55
2018-07-31T14:06:55.873Z,43.50
2018-07-31T14:09:27.931Z,44.27
2018-07-31T14:12:00.017Z,43.49
2018-07-31T14:14:32.115Z,42.46
2018-07-31T14:17:04.226Z,42.10
2018-07-31T14:19:37.132Z,43.20
2018-07-31T14:22:09.239Z,43.70
2018-07-31T14:24:41.346Z,43.96
2018-07-31T14:27:13.565Z,44.11
2018-07-31T14:29:45.642Z,42.04
2018-07-31T14:32:17.972Z,41.47
2018-07-31T14:34:50.109Z,40.61
2018-07-31T14:37:22.229Z,40.47
2018-07-31T14:39:54.753Z,39.63
2018-07-31T14:42:26.814Z,38.74
2018-07-31T14:44:59.144Z,38.18
2018-07-31T14:47:31.196Z,37.94
2018-07-31T14:50:03.811Z,37.55
2018-07-31T14:52:35.892Z,37.34
2018-07-31T14:55:08.335Z,37.21
2018-07-31T14:57:40.459Z,37.43
2018-07-31T15:00:12.587Z,37.48
2018-07-31T15:02:44.666Z,37.28
2018-07-31T15:05:16.732Z,37.45
2018-07-31T15:07:48.940Z,36.93
2018-07-31T15:10:21.019Z,36.90
2018-07-31T15:12:53.123Z,36.87
2018-07-31T15:15:25.294Z,36.84
2018-07-31T15:17:57.471Z,36.97
2018-07-31T15:20:29.643Z,36.96
2018-07-31T15:23:01.755Z,36.95
2018-07-31T15:25:33.874Z,36.75
2018-07-31T15:28:05.996Z,36.88
2018-07-31T15:30:38.090Z,37.14
2018-07-31T15:33:10.200Z,36.87
2018-07-31T15:35:42.327Z,36.62
2018-07-31T15:38:14.392Z,36.65
2018-07-31T15:40:46.574Z,36.57
2018-07-31T15:43:18.640Z,36.22
2018-07-31T15:45:50.760Z,36.45
2018-07-31T15:48:22.872Z,36.54
2018-07-31T15:50:54.936Z,36.68
2018-07-31T15:53:26.971Z,36.88
2018-07-31T15:55:59.035Z,36.72
2018-07-31T15:58:31.146Z,36.54
2018-07-31T16:01:03.280Z,36.73
2018-07-31T16:03:35.416Z,36.93
2018-07-31T16:06:07.527Z,37.63
2018-07-31T16:08:39.631Z,38.51
2018-07-31T16:11:11.714Z,40.09
2018-07-31T16:13:43.778Z,41.41
2018-07-31T16:16:15.948Z,42.32
2018-07-31T16:18:48.055Z,42.90
2018-07-31T16:21:20.147Z,42.73
2018-07-31T16:23:52.243Z,42.23
2018-07-31T16:26:24.450Z,41.71
2018-07-31T16:28:56.519Z,41.52
2018-07-31T16:31:28.571Z,40.99
2018-07-31T16:34:00.715Z,40.10
2018-07-31T16:36:32.762Z,39.37
2018-07-31T16:39:06.838Z,39.39
2018-07-31T16:41:39.028Z,39.07
2018-07-31T16:44:11.102Z,39.04
2018-07-31T16:46:43.181Z,38.95
2018-07-31T16:49:15.262Z,38.47
2018-07-31T16:51:47.429Z,37.84
2018-07-31T16:54:19.467Z,37.20
2018-07-31T16:56:51.544Z,37.49
2018-07-31T16:59:23.677Z,36.98
2018-07-31T17:01:55.854Z,36.76
2018-07-31T17:04:28.006Z,35.57
2018-07-31T17:07:00.087Z,34.71
2018-07-31T17:09:32.288Z,34.50
2018-07-31T17:12:04.419Z,34.30
2018-07-31T17:14:36.509Z,34.23
2018-07-31T17:17:08.632Z,34.35
2018-07-31T17:19:40.676Z,34.05
2018-07-31T17:22:12.928Z,33.96
2018-07-31T17:24:44.971Z,33.87
2018-07-31T17:27:17.146Z,33.88
2018-07-31T17:29:49.342Z,33.59
2018-07-31T17:32:21.411Z,33.79
2018-07-31T17:34:53.479Z,33.73
2018-07-31T17:37:25.606Z,33.63
2018-07-31T17:39:57.799Z,33.47
2018-07-31T17:42:29.899Z,33.27
2018-07-31T17:45:01.987Z,33.18
2018-07-31T17:47:34.099Z,33.14
2018-07-31T17:50:06.397Z,33.09
2018-07-31T17:52:38.575Z,33.01
2018-07-31T17:55:10.683Z,32.96
2018-07-31T17:57:42.791Z,32.75
2018-07-31T18:00:14.880Z,32.62
2018-07-31T18:02:47.059Z,32.52
2018-07-31T18:05:19.203Z,32.36
2018-07-31T18:07:51.360Z,32.19
2018-07-31T18:10:23.520Z,32.03
2018-07-31T18:12:55.690Z,31.85
2018-07-31T18:15:27.785Z,31.68
2018-07-31T18:17:59.844Z,31.55
2018-07-31T18:20:31.920Z,31.41
2018-07-31T18:23:03.983Z,31.36
2018-07-31T18:25:36.066Z,31.15
2018-07-31T18:28:08.112Z,31.01
2018-07-31T18:30:40.237Z,30.96
2018-07-31T18:33:12.384Z,30.82
2018-07-31T18:35:44.496Z,30.68
2018-07-31T18:38:16.574Z,30.58
2018-07-31T18:40:48.712Z,30.47
2018-07-31T18:43:20.814Z,30.33
2018-07-31T18:46:56.440Z,30.24
2018-07-31T18:49:28.523Z,30.13
2018-07-31T18:52:00.659Z,30.16
2018-07-31T18:54:32.836Z,29.99
2018-07-31T18:57:04.992Z,29.92
2018-07-31T18:59:37.136Z,29.78
2018-07-31T19:02:09.301Z,29.63
2018-07-31T19:04:41.411Z,29.49
2018-07-31T19:07:13.480Z,29.28
2018-07-31T19:09:45.596Z,29.19
2018-07-31T19:12:17.726Z,29.04
2018-07-31T19:14:49.790Z,28.94
2018-07-31T19:17:21.856Z,28.85
2018-07-31T19:19:53.924Z,28.73
2018-07-31T19:22:26.048Z,28.60
2018-07-31T19:24:58.192Z,28.41
2018-07-31T19:27:30.359Z,28.23
2018-07-31T19:30:02.530Z,28.08
2018-07-31T19:32:34.666Z,27.96
2018-07-31T19:35:06.736Z,27.88
2018-07-31T19:37:38.800Z,27.79
2018-07-31T19:40:10.913Z,27.69
2018-07-31T19:42:43.055Z,27.72
2018-07-31T19:45:15.335Z,27.68
2018-07-31T19:47:47.764Z,27.56
2018-07-31T19:50:20.323Z,27.48
2018-07-31T19:52:52.415Z,27.52
2018-07-31T19:55:24.505Z,27.51
2018-07-31T19:57:56.712Z,27.42
2018-07-31T20:00:28.929Z,27.26
2018-07-31T20:03:01.157Z,27.10
2018-07-31T20:05:33.363Z,27.02
2018-07-31T20:08:05.500Z,26.90
2018-07-31T20:10:37.606Z,27.01
2018-07-31T20:13:09.792Z,27.02
2018-07-31T20:15:42.023Z,27.03
2018-07-31T20:18:14.164Z,26.92
2018-07-31T20:20:46.251Z,26.82
2018-07-31T20:23:18.548Z,26.74
2018-07-31T20:25:50.641Z,26.65
2018-07-31T20:28:22.796Z,26.56
2018-07-31T20:30:54.919Z,26.49
2018-07-31T20:33:27.019Z,26.33
2018-07-31T20:35:59.120Z,26.21
2018-07-31T20:38:31.219Z,26.05
2018-07-31T20:41:03.279Z,25.91
2018-07-31T20:43:35.386Z,25.92
2018-07-31T20:46:07.589Z,25.92
2018-07-31T20:48:39.692Z,26.00
2018-07-31T20:51:11.834Z,26.01
2018-07-31T20:53:43.920Z,25.98
2018-07-31T20:56:16.045Z,25.92
2018-07-31T20:58:48.153Z,25.84
2018-07-31T21:01:20.298Z,25.73
2018-07-31T21:03:52.724Z,25.62
2018-07-31T21:06:24.809Z,25.55
2018-07-31T21:08:56.838Z,25.62
2018-07-31T21:11:28.902Z,25.60
2018-07-31T21:14:01.036Z,25.64
2018-07-31T21:16:33.118Z,25.77
2018-07-31T21:19:05.311Z,25.80
2018-07-31T21:21:38.388Z,25.87
2018-07-31T21:24:10.486Z,25.88
2018-07-31T21:26:42.509Z,25.86
2018-07-31T21:29:14.593Z,25.73
2018-07-31T21:31:46.646Z,25.64
2018-07-31T21:34:18.716Z,25.57
2018-07-31T21:36:51.012Z,25.53
2018-07-31T21:39:23.202Z,25.57
2018-07-31T21:41:55.217Z,25.57
2018-07-31T21:44:27.323Z,25.55
2018-07-31T21:46:59.804Z,25.47
2018-07-31T21:49:31.949Z,25.42
2018-07-31T21:52:04.051Z,25.41
2018-07-31T21:54:36.271Z,25.57
2018-07-31T21:57:08.366Z,25.79
2018-07-31T21:59:40.499Z,25.91
2018-07-31T22:02:12.506Z,25.96
2018-07-31T22:04:44.630Z,25.91
2018-07-31T22:07:16.869Z,25.94
2018-07-31T22:09:48.972Z,26.08
2018-07-31T22:12:21.485Z,26.04
2018-07-31T22:14:53.654Z,26.10
2018-07-31T22:17:25.827Z,26.11
2018-07-31T22:19:57.927Z,26.55
2018-07-31T22:22:29.988Z,26.66
2018-07-31T22:25:03.014Z,26.07
2018-07-31T22:27:35.049Z,24.74
2018-07-31T22:30:07.225Z,24.03
2018-07-31T22:32:39.266Z,23.38
2018-07-31T22:35:11.413Z,22.11
2018-07-31T22:37:43.506Z,21.61
2018-07-31T22:40:15.603Z,21.15
2018-07-31T22:42:47.684Z,21.21
2018-07-31T22:45:19.836Z,21.21
2018-07-31T22:47:52.607Z,21.16
2018-07-31T22:50:24.640Z,21.17
2018-07-31T22:52:56.782Z,20.85
2018-07-31T22:55:28.873Z,20.84
2018-07-31T22:58:01.034Z,20.77
2018-07-31T23:00:33.140Z,20.72
2018-07-31T23:03:05.229Z,20.76
2018-07-31T23:05:37.339Z,20.96
2018-07-31T23:08:09.500Z,20.96
2018-07-31T23:10:41.600Z,20.91
2018-07-31T23:13:13.740Z,20.99
2018-07-31T23:15:45.838Z,21.39
2018-07-31T23:18:17.957Z,21.37
2018-07-31T23:20:50.022Z,21.52
2018-07-31T23:23:22.095Z,21.81
2018-07-31T23:25:54.166Z,22.14
2018-07-31T23:28:26.266Z,22.17
2018-07-31T23:30:58.398Z,22.11
2018-07-31T23:33:30.535Z,22.03
2018-07-31T23:36:02.737Z,21.95
2018-07-31T23:38:34.876Z,21.89
2018-07-31T23:41:07.039Z,21.85
2018-07-31T23:43:39.148Z,21.81
2018-07-31T23:46:11.239Z,21.81
2018-07-31T23:48:43.371Z,21.85
2018-07-31T23:51:15.438Z,21.82
2018-07-31T23:53:47.519Z,22.02
2018-07-31T23:56:19.599Z,21.99
2018-07-31T23:58:51.682Z,22.05
